Time;durP1;ratioP1;P1;durP2;ratioP2;P2;SDS_P1;SDS_P2;PMS_P1;PMS_P2;Temp;Humidity;BMP_temperature;BMP_pressure;BME280_temperature;BME280_humidity;BME280_pressure;Samples;Min_cycle;Max_cycle;Signal;HPM_P1;HPM_P2
2021/11/03 00:00:35;;;;;;;19.80;13.52;;;11.70;86.10;;;;;;5075944;28;20443;-56
2021/11/03 00:03:04;;;;;;;21.05;14.05;;;11.70;86.10;;;;;;5093547;28;20020;-53
2021/11/03 00:05:30;;;;;;;21.45;14.13;;;11.70;86.10;;;;;;5075887;28;20028;-53
2021/11/03 00:07:57;;;;;;;19.08;13.50;;;11.70;86.10;;;;;;5096195;28;20027;-56
2021/11/03 00:10:23;;;;;;;16.58;11.30;;;11.70;85.90;;;;;;5098291;28;20016;-54
2021/11/03 00:12:49;;;;;;;18.35;12.48;;;11.80;86.00;;;;;;5086351;28;20056;-56
2021/11/03 00:15:16;;;;;;;21.58;14.77;;;11.80;85.90;;;;;;5096828;28;20027;-53
2021/11/03 00:17:43;;;;;;;19.17;14.35;;;11.80;86.00;;;;;;5103848;28;20119;-56
2021/11/03 00:20:10;;;;;;;20.50;13.63;;;11.80;86.10;;;;;;5091846;28;20031;-53
2021/11/03 00:22:36;;;;;;;18.30;12.60;;;11.90;86.10;;;;;;5093655;28;20472;-56
2021/11/03 00:25:03;;;;;;;18.50;12.27;;;11.90;86.00;;;;;;5090238;28;20020;-54
2021/11/03 00:27:29;;;;;;;21.90;14.68;;;11.90;85.70;;;;;;5075207;28;20024;-54
2021/11/03 00:29:55;;;;;;;18.15;12.13;;;11.90;85.70;;;;;;5093722;28;20037;-56
2021/11/03 00:32:21;;;;;;;20.63;13.43;;;11.80;85.70;;;;;;5089489;28;20108;-56
2021/11/03 00:34:46;;;;;;;19.38;12.80;;;11.90;85.80;;;;;;5092906;28;20028;-56
2021/11/03 00:37:14;;;;;;;22.13;14.63;;;11.90;86.00;;;;;;5085474;28;20074;-56
2021/11/03 00:39:40;;;;;;;20.92;14.38;;;11.80;86.10;;;;;;5095340;28;20035;-56
2021/11/03 00:42:06;;;;;;;18.67;13.55;;;11.90;86.30;;;;;;5089828;28;20073;-56
2021/11/03 00:44:32;;;;;;;20.92;12.90;;;11.90;86.30;;;;;;5093430;28;20032;-54
2021/11/03 00:46:58;;;;;;;23.33;13.80;;;11.90;86.20;;;;;;5093485;28;20434;-56
2021/11/03 00:49:23;;;;;;;16.60;12.43;;;11.90;86.10;;;;;;5093536;28;20024;-56
2021/11/03 00:51:49;;;;;;;18.75;12.07;;;11.90;86.10;;;;;;5093385;28;20471;-55
2021/11/03 00:54:15;;;;;;;17.63;12.93;;;11.90;85.80;;;;;;5093168;28;20535;-56
2021/11/03 00:56:40;;;;;;;20.35;14.10;;;11.90;85.40;;;;;;5092826;28;20356;-56
2021/11/03 00:59:06;;;;;;;17.38;13.82;;;11.80;85.40;;;;;;5092487;28;20016;-56
2021/11/03 01:01:32;;;;;;;19.27;12.52;;;11.70;85.70;;;;;;5091955;28;20036;-54
2021/11/03 01:03:59;;;;;;;22.25;15.07;;;11.70;86.00;;;;;;5093075;28;20085;-55
2021/11/03 01:06:24;;;;;;;23.33;14.52;;;11.60;86.10;;;;;;5093409;28;20427;-56
2021/11/03 01:08:50;;;;;;;19.23;13.45;;;11.60;86.50;;;;;;5093204;28;20051;-56
2021/11/03 01:11:16;;;;;;;20.40;13.75;;;11.50;86.50;;;;;;5092700;28;20030;-55
2021/11/03 01:13:41;;;;;;;21.27;14.80;;;11.50;86.70;;;;;;5088913;28;20036;-56
2021/11/03 01:16:07;;;;;;;21.77;15.40;;;11.40;86.90;;;;;;5106676;28;20502;-55
2021/11/03 01:18:33;;;;;;;24.00;16.50;;;11.40;87.10;;;;;;5105205;28;20049;-53
2021/11/03 01:21:01;;;;;;;23.27;14.95;;;11.30;87.40;;;;;;5093161;28;20146;-52
2021/11/03 01:23:27;;;;;;;25.45;16.50;;;11.30;87.60;;;;;;5104215;28;20054;-53
2021/11/03 01:25:56;;;;;;;22.30;15.48;;;11.20;87.90;;;;;;5085351;28;20405;-56
2021/11/03 01:28:21;;;;;;;23.27;16.00;;;11.20;88.20;;;;;;5086393;28;20025;-56
2021/11/03 01:30:48;;;;;;;24.30;17.48;;;11.10;88.30;;;;;;5092646;28;20024;-56
2021/11/03 01:33:16;;;;;;;23.73;16.20;;;11.10;88.30;;;;;;5092331;28;20023;-54
2021/11/03 01:35:42;;;;;;;25.13;16.60;;;11.10;88.50;;;;;;5093253;28;20012;-55
2021/11/03 01:38:08;;;;;;;22.02;15.30;;;11.00;88.80;;;;;;5093037;28;20032;-56
2021/11/03 01:40:36;;;;;;;20.85;14.55;;;11.00;89.10;;;;;;5092741;28;20507;-56
2021/11/03 01:43:03;;;;;;;21.35;14.15;;;11.10;89.20;;;;;;5092600;28;20356;-55
2021/11/03 01:45:30;;;;;;;21.83;13.65;;;11.00;89.20;;;;;;5091821;28;20030;-56
2021/11/03 01:48:04;;;;;;;20.05;13.90;;;11.00;89.40;;;;;;5094874;28;20052;-56
2021/11/03 01:50:54;;;;;;;17.58;12.65;;;11.00;89.50;;;;;;5097900;28;20077;-55
2021/11/03 01:53:25;;;;;;;17.67;12.23;;;11.00;89.70;;;;;;5093218;28;20348;-56
2021/11/03 01:55:58;;;;;;;20.13;13.27;;;11.00;89.80;;;;;;5092549;28;20420;-55
2021/11/03 01:58:32;;;;;;;19.73;13.80;;;11.10;89.90;;;;;;5092702;28;20457;-56
2021/11/03 02:00:58;;;;;;;22.58;14.82;;;11.10;89.90;;;;;;5085935;28;20586;-56
2021/11/03 02:03:28;;;;;;;19.95;13.23;;;11.10;90.00;;;;;;5092608;28;20384;-53
2021/11/03 02:06:03;;;;;;;21.08;13.93;;;11.10;90.10;;;;;;5092990;28;20020;-55
2021/11/03 02:08:31;;;;;;;18.77;12.25;;;11.10;90.10;;;;;;5094539;28;20012;-54
2021/11/03 02:10:57;;;;;;;20.25;13.25;;;11.10;90.10;;;;;;5096005;28;20020;-56
2021/11/03 02:13:24;;;;;;;21.35;14.07;;;11.10;90.10;;;;;;5096061;28;20519;-55
2021/11/03 02:15:50;;;;;;;20.52;13.63;;;11.10;90.20;;;;;;5093760;28;20048;-56
2021/11/03 02:18:18;;;;;;;19.48;12.55;;;11.10;90.30;;;;;;5096965;28;20024;-54
2021/11/03 02:20:47;;;;;;;18.55;13.70;;;11.10;90.30;;;;;;5096323;28;20489;-56
2021/11/03 02:23:18;;;;;;;21.08;13.57;;;11.10;90.40;;;;;;5097977;28;20414;-53
2021/11/03 02:25:49;;;;;;;;;;;11.10;90.40;;;;;;5096160;28;20452;-55
2021/11/03 02:28:16;;;;;;;20.27;13.75;;;11.00;90.90;;;;;;5095972;28;20369;-55
2021/11/03 02:30:42;;;;;;;20.05;14.18;;;11.00;90.50;;;;;;5095843;28;20032;-56
2021/11/03 02:33:15;;;;;;;17.88;12.73;;;11.00;90.60;;;;;;5085932;28;20456;-53
2021/11/03 02:35:58;;;;;;;19.95;13.48;;;11.00;90.70;;;;;;5084322;28;20444;-53
2021/11/03 02:38:39;;;;;;;21.80;13.40;;;11.00;90.70;;;;;;5090641;28;20460;-55
2021/11/03 02:41:10;;;;;;;18.60;13.55;;;11.00;91.10;;;;;;5092635;28;20402;-56
2021/11/03 02:43:59;;;;;;;22.40;14.07;;;11.00;90.80;;;;;;5095123;28;20040;-55
2021/11/03 02:46:25;;;;;;;20.92;14.48;;;11.00;90.90;;;;;;5095552;28;20130;-54
2021/11/03 02:48:51;;;;;;;21.52;13.43;;;11.00;91.10;;;;;;5095539;28;20038;-55
2021/11/03 02:51:34;;;;;;;20.77;13.45;;;11.00;91.20;;;;;;5089248;28;20028;-56
2021/11/03 02:54:07;;;;;;;20.58;13.43;;;11.00;91.20;;;;;;5095229;28;20589;-53
2021/11/03 02:56:38;;;;;;;17.75;13.50;;;11.00;91.30;;;;;;5095669;28;20388;-53
2021/11/03 02:59:05;;;;;;;18.23;13.52;;;10.90;91.30;;;;;;5095147;28;20031;-56
2021/11/03 03:01:38;;;;;;;19.80;13.80;;;11.00;91.40;;;;;;5095368;28;20024;-53
2021/11/03 03:04:10;;;;;;;20.88;13.70;;;11.00;91.70;;;;;;5090677;28;20059;-53
2021/11/03 03:06:36;;;;;;;18.85;13.35;;;11.00;91.50;;;;;;5091820;28;20539;-56
2021/11/03 03:09:03;;;;;;;17.55;11.95;;;11.00;91.60;;;;;;5094974;28;20059;-56
2021/11/03 03:11:31;;;;;;;21.48;13.57;;;11.00;91.60;;;;;;5094619;28;20039;-56
2021/11/03 03:13:57;;;;;;;18.30;11.70;;;11.00;91.60;;;;;;5091636;28;20031;-52
2021/11/03 03:16:22;;;;;;;19.08;13.80;;;11.00;91.60;;;;;;5093737;28;20040;-56
2021/11/03 03:18:48;;;;;;;18.77;13.45;;;11.00;91.60;;;;;;5094558;28;20371;-54
2021/11/03 03:21:16;;;;;;;17.27;12.15;;;11.00;91.80;;;;;;5094479;28;20043;-55
2021/11/03 03:23:43;;;;;;;21.13;13.13;;;11.00;91.70;;;;;;5099565;28;20024;-56
2021/11/03 03:26:10;;;;;;;16.27;11.57;;;11.00;91.80;;;;;;5094519;28;20024;-55
2021/11/03 03:28:36;;;;;;;18.75;10.73;;;11.00;91.90;;;;;;5094655;28;20016;-55
2021/11/03 03:31:04;;;;;;;15.93;11.57;;;11.00;91.90;;;;;;5095059;28;20151;-56
2021/11/03 03:33:30;;;;;;;18.38;12.23;;;11.10;91.90;;;;;;5094339;28;20016;-55
2021/11/03 03:35:55;;;;;;;17.58;12.25;;;11.10;91.90;;;;;;5092293;28;20020;-56
2021/11/03 03:38:21;;;;;;;16.55;11.07;;;11.10;91.90;;;;;;5073937;28;20016;-56
2021/11/03 03:40:47;;;;;;;18.05;12.65;;;11.10;91.90;;;;;;5088565;28;20028;-56
2021/11/03 03:43:13;;;;;;;14.88;11.30;;;11.10;91.80;;;;;;5093990;28;20024;-56
2021/11/03 03:45:38;;;;;;;19.90;13.30;;;11.20;91.80;;;;;;5094665;28;20020;-54
2021/11/03 03:48:05;;;;;;;19.98;13.30;;;11.20;91.80;;;;;;5094650;28;20027;-55
2021/11/03 03:50:31;;;;;;;17.65;12.23;;;11.20;91.80;;;;;;5094253;28;20020;-54
2021/11/03 03:52:57;;;;;;;19.00;13.77;;;11.20;91.70;;;;;;5087702;28;20020;-56
2021/11/03 03:55:23;;;;;;;16.80;12.20;;;11.20;91.80;;;;;;5094403;28;20487;-55
2021/11/03 03:57:48;;;;;;;17.52;12.40;;;11.20;91.90;;;;;;5094304;28;20024;-55
2021/11/03 04:00:17;;;;;;;19.05;12.70;;;11.30;91.80;;;;;;5094113;28;20078;-56
2021/11/03 04:02:43;;;;;;;18.05;12.93;;;11.30;91.80;;;;;;5093768;28;20031;-56
2021/11/03 04:05:10;;;;;;;18.25;13.50;;;11.30;91.80;;;;;;5093925;28;20028;-53
2021/11/03 04:07:36;;;;;;;23.00;13.27;;;11.40;91.70;;;;;;5093962;28;20016;-56
2021/11/03 04:10:03;;;;;;;20.67;13.95;;;11.40;91.60;;;;;;5084037;28;20024;-53
2021/11/03 04:12:28;;;;;;;19.52;14.10;;;11.40;91.50;;;;;;5093506;28;20051;-56
2021/11/03 04:14:54;;;;;;;19.63;13.15;;;11.40;91.50;;;;;;5084859;28;20028;-56
2021/11/03 04:17:20;;;;;;;24.33;15.90;;;11.40;91.50;;;;;;5093439;28;20055;-52
2021/11/03 04:19:45;;;;;;;20.52;14.95;;;11.30;91.50;;;;;;5093891;28;20103;-54
2021/11/03 04:22:11;;;;;;;23.08;15.60;;;11.30;91.50;;;;;;5096574;28;20098;-53
2021/11/03 04:24:37;;;;;;;21.38;14.43;;;11.30;91.50;;;;;;5095708;28;20104;-53
2021/11/03 04:27:03;;;;;;;22.60;15.52;;;11.30;91.60;;;;;;5083722;28;20032;-56
2021/11/03 04:29:28;;;;;;;22.80;16.15;;;11.40;91.60;;;;;;5093851;28;20099;-56
2021/11/03 04:31:54;;;;;;;22.95;14.50;;;11.30;91.50;;;;;;5093108;28;20464;-55
2021/11/03 04:34:21;;;;;;;22.75;14.32;;;11.40;91.50;;;;;;5089162;28;20028;-55
2021/11/03 04:36:47;;;;;;;21.23;13.95;;;11.40;91.50;;;;;;5075196;28;20067;-55
2021/11/03 04:39:13;;;;;;;21.20;15.57;;;11.30;91.50;;;;;;5087155;28;20024;-56
2021/11/03 04:41:39;;;;;;;24.35;18.10;;;11.30;91.60;;;;;;5092695;28;20498;-55
2021/11/03 04:44:06;;;;;;;22.00;17.15;;;11.30;91.60;;;;;;5093677;28;20024;-53
2021/11/03 04:46:32;;;;;;;22.42;16.52;;;11.30;91.70;;;;;;5093508;28;20055;-56
2021/11/03 04:48:58;;;;;;;22.95;15.68;;;11.20;91.70;;;;;;5093524;28;20056;-56
2021/11/03 04:51:24;;;;;;;19.95;15.02;;;11.20;91.70;;;;;;5093230;28;20475;-56
2021/11/03 04:53:49;;;;;;;17.45;13.43;;;11.20;91.70;;;;;;5093436;28;20115;-55
2021/11/03 04:56:19;;;;;;;18.67;13.23;;;11.20;91.80;;;;;;5090362;28;20058;-56
2021/11/03 04:58:46;;;;;;;18.83;12.77;;;11.10;91.80;;;;;;5087343;28;20341;-55
2021/11/03 05:01:11;;;;;;;18.30;12.18;;;11.10;91.90;;;;;;5093204;28;20375;-54
2021/11/03 05:03:37;;;;;;;19.00;13.98;;;11.10;92.00;;;;;;5090940;28;20031;-55
2021/11/03 05:06:04;;;;;;;18.50;12.75;;;11.10;92.20;;;;;;5093016;28;20016;-55
2021/11/03 05:08:31;;;;;;;19.23;14.18;;;11.10;92.30;;;;;;5092865;28;20024;-53
2021/11/03 05:10:57;;;;;;;21.48;13.88;;;11.10;92.40;;;;;;5092962;28;20028;-52
2021/11/03 05:13:23;;;;;;;19.90;14.63;;;11.20;92.40;;;;;;5090284;28;20423;-53
2021/11/03 05:15:50;;;;;;;24.17;16.52;;;11.20;92.50;;;;;;5090850;28;20139;-55
2021/11/03 05:18:16;;;;;;;23.35;17.20;;;11.30;92.50;;;;;;5093352;28;20032;-53
2021/11/03 05:20:41;;;;;;;23.52;16.08;;;11.30;92.50;;;;;;5093145;28;20141;-54
2021/11/03 05:23:07;;;;;;;29.52;19.55;;;11.40;92.50;;;;;;5097919;28;20034;-56
2021/11/03 05:25:33;;;;;;;30.95;20.83;;;11.40;92.50;;;;;;5092952;28;20020;-56
2021/11/03 05:27:59;;;;;;;28.40;19.05;;;11.40;92.50;;;;;;5092933;28;20445;-55
2021/11/03 05:30:28;;;;;;;26.17;17.55;;;11.50;92.50;;;;;;5092518;28;20044;-56
2021/11/03 05:32:54;;;;;;;26.88;18.20;;;11.60;92.40;;;;;;5093090;28;20461;-56
2021/11/03 05:35:20;;;;;;;31.83;21.42;;;11.60;92.40;;;;;;5092933;28;20030;-56
2021/11/03 05:37:46;;;;;;;28.40;19.45;;;11.60;92.30;;;;;;5076612;28;20104;-56
2021/11/03 05:40:17;;;;;;;26.02;18.42;;;11.70;92.20;;;;;;5081847;28;20063;-56
2021/11/03 05:42:43;;;;;;;26.02;18.42;;;11.70;92.10;;;;;;5095103;28;20028;-54
2021/11/03 05:45:09;;;;;;;27.77;19.70;;;11.70;92.10;;;;;;5095575;28;20529;-52
2021/11/03 05:47:36;;;;;;;28.00;18.85;;;11.80;92.30;;;;;;5090884;28;20028;-56
2021/11/03 05:50:04;;;;;;;28.23;18.98;;;11.80;92.00;;;;;;5096541;28;20020;-54
2021/11/03 05:52:30;;;;;;;31.33;21.00;;;11.80;92.30;;;;;;5078473;28;20105;-56
2021/11/03 05:54:55;;;;;;;33.78;24.13;;;11.90;92.00;;;;;;5096746;28;20074;-55
2021/11/03 05:57:31;;;;;;;30.27;20.10;;;11.90;92.00;;;;;;5096592;28;20020;-56
2021/11/03 05:59:58;;;;;;;34.25;24.17;;;11.90;91.90;;;;;;5096071;28;20028;-55
2021/11/03 06:02:24;;;;;;;32.55;21.73;;;11.90;91.90;;;;;;5081324;28;20032;-56
2021/11/03 06:04:50;;;;;;;31.40;21.05;;;11.90;91.90;;;;;;5090385;28;20044;-55
2021/11/03 06:07:21;;;;;;;35.00;22.63;;;12.00;92.00;;;;;;5093687;28;20446;-55
2021/11/03 06:09:46;;;;;;;29.88;21.23;;;12.00;92.00;;;;;;5083501;28;20031;-56
2021/11/03 06:12:12;;;;;;;33.50;22.02;;;12.00;92.30;;;;;;5091036;28;20434;-56
2021/11/03 06:14:38;;;;;;;34.38;22.80;;;12.10;92.00;;;;;;5091187;28;20028;-54
2021/11/03 06:17:04;;;;;;;36.05;25.33;;;12.10;91.90;;;;;;5088077;28;20072;-56
2021/11/03 06:19:30;;;;;;;34.33;22.90;;;12.10;91.80;;;;;;5095460;28;20020;-55
2021/11/03 06:21:56;;;;;;;33.35;23.80;;;12.10;91.80;;;;;;5080656;28;20468;-50
2021/11/03 06:24:27;;;;;;;29.75;21.92;;;12.20;91.70;;;;;;5089910;28;20538;-53
2021/11/03 06:26:53;;;;;;;;;;;12.10;91.60;;;;;;5072497;28;20020;-53
2021/11/03 06:29:19;;;;;;;37.75;22.23;;;12.10;91.60;;;;;;5080901;28;20278;-53
2021/11/03 06:31:44;;;;;;;34.00;22.70;;;12.10;91.60;;;;;;5087475;28;20032;-54
2021/11/03 06:34:10;;;;;;;32.25;22.17;;;12.00;91.50;;;;;;5081022;28;20024;-54
2021/11/03 06:36:37;;;;;;;26.95;19.48;;;12.00;91.60;;;;;;5085460;28;20035;-54
2021/11/03 06:39:05;;;;;;;29.90;22.25;;;12.00;91.50;;;;;;5087780;28;20047;-51
2021/11/03 06:41:31;;;;;;;28.90;20.85;;;12.00;91.60;;;;;;5082704;28;20468;-52
2021/11/03 06:43:57;;;;;;;29.67;20.45;;;11.90;91.70;;;;;;5089351;28;20357;-51
2021/11/03 06:46:22;;;;;;;27.40;19.50;;;12.00;91.70;;;;;;5088932;28;20020;-54
2021/11/03 06:48:48;;;;;;;31.42;21.25;;;11.90;91.70;;;;;;5095030;28;20050;-54
2021/11/03 06:51:14;;;;;;;30.88;21.13;;;11.90;91.70;;;;;;5090726;28;20062;-55
2021/11/03 06:53:40;;;;;;;31.10;22.15;;;11.90;91.70;;;;;;5090556;28;20054;-54
2021/11/03 06:56:07;;;;;;;26.80;18.05;;;11.90;91.80;;;;;;5068589;28;20037;-55
2021/11/03 06:58:33;;;;;;;36.13;22.55;;;11.90;91.80;;;;;;5094060;28;20058;-55
2021/11/03 07:01:00;;;;;;;25.83;19.38;;;11.90;91.80;;;;;;5084541;28;20035;-52
2021/11/03 07:03:34;;;;;;;31.45;22.20;;;11.90;91.80;;;;;;5082122;28;20032;-54
2021/11/03 07:06:00;;;;;;;32.00;20.00;;;11.90;92.00;;;;;;5063350;28;20028;-55
2021/11/03 07:08:26;;;;;;;27.35;18.23;;;11.90;92.10;;;;;;5080704;28;20035;-56
2021/11/03 07:10:55;;;;;;;26.27;18.65;;;11.90;92.10;;;;;;5078407;28;20035;-53
2021/11/03 07:13:22;;;;;;;29.60;19.42;;;11.90;92.10;;;;;;5078931;28;20028;-56
2021/11/03 07:15:49;;;;;;;29.90;20.25;;;11.90;92.10;;;;;;5078722;28;20091;-56
2021/11/03 07:18:15;;;;;;;28.05;19.45;;;11.90;92.10;;;;;;5078164;28;20031;-56
2021/11/03 07:20:43;;;;;;;30.63;19.88;;;11.80;92.10;;;;;;5063905;28;20032;-55
2021/11/03 07:23:10;;;;;;;31.13;20.30;;;11.80;92.20;;;;;;5072564;28;20040;-57
2021/11/03 07:25:36;;;;;;;29.33;20.38;;;11.80;92.40;;;;;;5080293;28;20069;-57
2021/11/03 07:28:03;;;;;;;31.73;20.40;;;11.80;92.40;;;;;;5077414;28;20024;-57
2021/11/03 07:30:32;;;;;;;28.13;17.50;;;11.80;92.40;;;;;;5072822;28;20109;-57
2021/11/03 07:32:58;;;;;;;29.25;19.35;;;11.80;92.50;;;;;;5074145;28;20107;-56
2021/11/03 07:35:24;;;;;;;28.95;18.10;;;11.70;92.60;;;;;;5073866;28;20081;-56
2021/11/03 07:37:52;;;;;;;29.05;18.80;;;11.80;92.80;;;;;;5054080;28;20040;-56
2021/11/03 07:40:20;;;;;;;26.00;19.27;;;11.80;92.90;;;;;;5071031;28;20028;-57
2021/11/03 07:42:47;;;;;;;27.88;19.25;;;11.80;92.90;;;;;;5078926;28;20043;-57
2021/11/03 07:45:13;;;;;;;29.88;20.30;;;11.80;92.90;;;;;;5073917;28;20063;-57
2021/11/03 07:47:39;;;;;;;29.05;20.90;;;11.80;93.00;;;;;;5070847;28;20055;-56
2021/11/03 07:50:08;;;;;;;31.17;20.52;;;11.90;93.10;;;;;;5071651;28;20136;-56
2021/11/03 07:52:34;;;;;;;34.10;22.38;;;11.90;93.10;;;;;;5057364;28;20040;-57
2021/11/03 07:55:00;;;;;;;30.58;21.00;;;11.90;93.10;;;;;;5068396;28;20043;-56
2021/11/03 07:57:25;;;;;;;29.67;19.95;;;11.90;93.20;;;;;;5070037;28;20032;-56
2021/11/03 07:59:51;;;;;;;33.25;21.30;;;11.90;93.10;;;;;;5074411;28;20519;-56
2021/11/03 08:02:17;;;;;;;34.40;20.80;;;11.90;93.20;;;;;;5068874;28;20430;-55
2021/11/03 08:04:42;;;;;;;32.28;22.38;;;12.00;93.30;;;;;;5069528;28;21509;-56
2021/11/03 08:07:08;;;;;;;29.55;19.30;;;12.00;93.30;;;;;;5073210;28;20111;-56
2021/11/03 08:09:35;;;;;;;33.60;21.10;;;12.00;93.40;;;;;;5067225;28;20043;-53
2021/11/03 08:12:02;;;;;;;33.33;22.70;;;12.00;93.30;;;;;;5071128;28;20559;-55
2021/11/03 08:14:30;;;;;;;32.95;23.02;;;12.10;93.50;;;;;;5070890;28;20449;-57
2021/11/03 08:17:12;;;;;;;29.00;20.23;;;12.10;93.40;;;;;;5067616;28;20376;-56
2021/11/03 08:19:45;;;;;;;23.83;17.83;;;12.10;93.50;;;;;;5071700;28;20117;-55
2021/11/03 08:22:12;;;;;;;31.30;20.45;;;12.10;93.40;;;;;;5067414;28;20032;-56
2021/11/03 08:24:38;;;;;;;25.00;17.15;;;12.10;93.40;;;;;;5067389;28;20031;-56
2021/11/03 08:27:05;;;;;;;26.25;17.75;;;12.10;93.30;;;;;;5069735;28;20047;-56
2021/11/03 08:29:31;;;;;;;27.58;19.02;;;12.10;93.40;;;;;;5051606;28;20032;-56
2021/11/03 08:31:58;;;;;;;29.42;20.15;;;12.10;93.50;;;;;;5068952;28;20027;-56
2021/11/03 08:34:33;;;;;;;24.55;17.40;;;12.10;93.70;;;;;;5051215;28;20471;-56
2021/11/03 08:37:03;;;;;;;27.35;17.98;;;12.20;93.80;;;;;;5052929;28;20066;-56
2021/11/03 08:39:29;;;;;;;26.17;19.23;;;12.20;93.70;;;;;;5070135;28;20044;-55
2021/11/03 08:41:55;;;;;;;34.30;22.58;;;12.20;93.70;;;;;;5066283;28;20032;-55
2021/11/03 08:44:21;;;;;;;34.13;24.05;;;12.30;93.50;;;;;;5067581;28;20032;-56
2021/11/03 08:46:46;;;;;;;34.65;24.23;;;12.30;93.50;;;;;;5066844;28;20139;-56
2021/11/03 08:49:12;;;;;;;38.47;25.55;;;12.30;93.40;;;;;;5062900;28;20028;-56
2021/11/03 08:51:39;;;;;;;44.20;29.27;;;12.30;93.50;;;;;;5061108;28;20996;-56
2021/11/03 08:54:07;;;;;;;41.22;28.75;;;12.40;93.50;;;;;;5053297;28;20636;-55
2021/11/03 08:56:36;;;;;;;34.88;22.63;;;12.40;93.50;;;;;;5067192;28;20028;-56
2021/11/03 08:59:03;;;;;;;26.08;19.45;;;12.40;93.50;;;;;;5064142;28;20028;-55
2021/11/03 09:01:30;;;;;;;26.42;18.27;;;12.50;93.40;;;;;;5061268;28;20158;-55
2021/11/03 09:03:56;;;;;;;23.75;16.20;;;12.50;93.30;;;;;;5026830;28;20028;-56
2021/11/03 09:06:22;;;;;;;24.25;16.98;;;12.50;93.20;;;;;;5036770;28;20036;-54
2021/11/03 09:08:50;;;;;;;24.40;17.75;;;12.50;93.10;;;;;;5067847;28;20510;-55
2021/11/03 09:11:20;;;;;;;23.88;15.15;;;12.40;93.00;;;;;;5063423;28;20151;-55
2021/11/03 09:13:46;;;;;;;23.60;15.43;;;12.40;92.80;;;;;;5073589;28;20371;-55
2021/11/03 09:16:12;;;;;;;26.10;17.35;;;12.40;92.70;;;;;;5069546;28;20117;-55
2021/11/03 09:18:38;;;;;;;24.33;16.25;;;12.30;92.70;;;;;;5078601;28;20036;-55
2021/11/03 09:21:07;;;;;;;23.25;15.82;;;12.20;92.90;;;;;;5071794;28;20558;-54
2021/11/03 09:23:33;;;;;;;24.48;15.65;;;12.20;93.20;;;;;;5069640;28;20036;-55
2021/11/03 09:26:00;;;;;;;28.75;18.25;;;12.20;93.00;;;;;;5062315;28;20023;-55
2021/11/03 09:28:28;;;;;;;26.95;17.08;;;12.10;93.10;;;;;;5056240;28;20064;-55
2021/11/03 09:30:54;;;;;;;25.73;18.25;;;12.10;93.10;;;;;;5057077;28;20024;-55
2021/11/03 09:33:21;;;;;;;27.98;17.67;;;12.10;93.10;;;;;;5065152;28;20153;-56
2021/11/03 09:35:50;;;;;;;26.92;17.33;;;12.00;93.10;;;;;;5071758;28;20796;-55
2021/11/03 09:38:20;;;;;;;23.15;14.73;;;12.00;93.30;;;;;;5071682;28;20032;-55
2021/11/03 09:40:57;;;;;;;24.88;17.25;;;12.00;93.30;;;;;;5077721;28;20043;-53
2021/11/03 09:43:25;;;;;;;23.70;15.93;;;12.00;93.40;;;;;;5064123;28;20043;-55
2021/11/03 09:45:51;;;;;;;22.88;15.32;;;12.00;93.40;;;;;;5069831;28;20032;-55
2021/11/03 09:48:25;;;;;;;23.33;14.65;;;12.00;93.50;;;;;;5068363;28;20812;-55
2021/11/03 09:50:56;;;;;;;24.42;15.48;;;12.00;93.50;;;;;;5063209;28;20081;-55
2021/11/03 09:53:21;;;;;;;21.63;14.27;;;12.00;93.40;;;;;;5060724;28;20028;-56
2021/11/03 09:55:47;;;;;;;21.88;14.95;;;12.00;93.40;;;;;;5058181;28;20028;-56
2021/11/03 09:58:43;;;;;;;23.08;15.13;;;12.00;93.50;;;;;;5061826;28;20688;-56
2021/11/03 10:01:31;;;;;;;24.15;15.32;;;12.00;93.50;;;;;;5062485;28;20055;-55
2021/11/03 10:04:13;;;;;;;22.20;14.43;;;12.00;93.30;;;;;;5066541;28;20032;-54
2021/11/03 10:06:59;;;;;;;21.30;13.60;;;12.00;93.50;;;;;;5065503;28;20756;-54
2021/11/03 10:09:25;;;;;;;23.02;15.48;;;12.00;93.30;;;;;;5067376;28;20055;-52
2021/11/03 10:11:53;;;;;;;19.95;14.10;;;12.00;93.30;;;;;;5068842;28;20115;-54
2021/11/03 10:14:19;;;;;;;23.17;14.88;;;12.00;93.30;;;;;;5062991;28;23158;-54
2021/11/03 10:16:51;;;;;;;21.13;13.93;;;12.00;93.30;;;;;;5068953;28;20476;-55
2021/11/03 10:19:18;;;;;;;21.38;13.07;;;12.00;93.40;;;;;;5073917;28;20028;-55
2021/11/03 10:21:47;;;;;;;20.73;13.63;;;12.00;93.50;;;;;;5076996;28;20505;-54
2021/11/03 10:24:13;;;;;;;24.20;14.45;;;12.00;93.40;;;;;;5075761;28;20040;-54
2021/11/03 10:27:08;;;;;;;20.50;14.57;;;12.00;93.40;;;;;;5072090;28;20585;-55
2021/11/03 10:29:42;;;;;;;19.48;12.70;;;12.00;93.40;;;;;;5065246;28;20127;-53
2021/11/03 10:32:07;;;;;;;18.52;12.48;;;12.00;93.50;;;;;;5055145;28;20043;-55
2021/11/03 10:34:33;;;;;;;17.85;11.82;;;12.00;93.50;;;;;;5054538;28;20139;-55
2021/11/03 10:37:04;;;;;;;21.40;14.80;;;12.00;93.50;;;;;;5062987;28;20024;-54
2021/11/03 10:39:40;;;;;;;;;;;12.00;93.50;;;;;;5060831;28;20038;-55
2021/11/03 10:42:18;;;;;;;18.08;12.50;;;12.00;93.40;;;;;;5046888;28;19923;-54
2021/11/03 10:44:44;;;;;;;20.90;13.40;;;12.10;93.50;;;;;;5042800;28;20633;-55
2021/11/03 10:47:14;;;;;;;16.92;12.25;;;12.10;93.50;;;;;;5060380;28;20532;-55
2021/11/03 10:49:55;;;;;;;19.08;12.85;;;12.10;93.50;;;;;;5073785;28;20040;-55
2021/11/03 10:52:33;;;;;;;19.35;12.50;;;12.20;93.40;;;;;;5054034;28;20063;-55
2021/11/03 10:55:14;;;;;;;19.52;13.00;;;12.20;93.40;;;;;;5074529;28;20641;-55
2021/11/03 10:57:47;;;;;;;19.50;13.43;;;12.20;93.40;;;;;;5064857;28;20060;-53
2021/11/03 11:00:29;;;;;;;20.50;14.07;;;12.20;93.40;;;;;;5049102;28;20120;-54
2021/11/03 11:03:10;;;;;;;19.88;13.80;;;12.30;93.40;;;;;;5074469;28;20028;-55
2021/11/03 11:05:41;;;;;;;24.08;16.08;;;12.30;93.50;;;;;;5073428;28;20039;-55
2021/11/03 11:08:24;;;;;;;18.80;13.52;;;12.30;93.30;;;;;;5069112;28;20055;-52
2021/11/03 11:11:08;;;;;;;20.67;14.73;;;12.40;93.20;;;;;;5072363;28;20024;-55
2021/11/03 11:13:37;;;;;;;20.33;14.73;;;12.40;93.10;;;;;;5076805;28;20574;-55
2021/11/03 11:16:13;;;;;;;20.77;14.90;;;12.40;93.10;;;;;;5078049;28;20059;-55
2021/11/03 11:19:07;;;;;;;24.23;15.90;;;12.40;93.10;;;;;;5078022;28;20027;-54
2021/11/03 11:21:44;;;;;;;23.40;16.05;;;12.40;93.20;;;;;;5077825;28;20036;-55
2021/11/03 11:24:32;;;;;;;20.35;14.85;;;12.50;93.30;;;;;;5076353;28;20029;-54
2021/11/03 11:27:17;;;;;;;22.10;15.60;;;12.50;93.10;;;;;;5071938;28;20032;-54
2021/11/03 11:30:15;;;;;;;21.67;14.40;;;12.60;93.00;;;;;;5076859;28;20024;-55
2021/11/03 11:32:56;;;;;;;20.15;14.52;;;12.60;92.80;;;;;;5086874;28;20036;-55
2021/11/03 11:35:33;;;;;;;22.87;15.13;;;12.50;92.80;;;;;;5085833;28;20491;-54
2021/11/03 11:38:21;;;;;;;21.08;14.70;;;12.50;92.80;;;;;;5080288;28;20288;-54
2021/11/03 11:41:05;;;;;;;20.15;13.73;;;12.60;93.00;;;;;;5077167;28;20612;-54
2021/11/03 11:43:36;;;;;;;19.33;11.88;;;12.60;92.90;;;;;;5075653;28;20028;-51
2021/11/03 11:46:12;;;;;;;18.15;12.77;;;12.60;92.90;;;;;;5071144;28;20052;-52
2021/11/03 11:48:39;;;;;;;20.65;13.30;;;12.60;92.70;;;;;;5070707;28;20028;-51
2021/11/03 11:51:17;;;;;;;21.73;14.38;;;12.60;92.70;;;;;;5054697;28;20035;-52
2021/11/03 11:53:54;;;;;;;22.65;14.05;;;12.70;92.60;;;;;;5072865;28;20631;-54
2021/11/03 11:56:25;;;;;;;18.05;12.55;;;12.60;92.60;;;;;;5070935;28;20021;-54
2021/11/03 11:59:00;;;;;;;17.40;12.13;;;12.70;92.60;;;;;;5077355;28;20023;-55
2021/11/03 12:01:37;;;;;;;18.45;12.50;;;12.70;92.50;;;;;;5073279;28;20024;-55
2021/11/03 12:04:02;;;;;;;17.10;12.05;;;12.70;92.50;;;;;;5079889;28;20723;-55
2021/11/03 12:06:45;;;;;;;19.13;12.57;;;12.70;92.40;;;;;;5072046;28;20035;-56
2021/11/03 12:09:20;;;;;;;20.50;13.38;;;12.70;92.30;;;;;;5074114;28;20020;-52
2021/11/03 12:11:49;;;;;;;20.98;13.15;;;12.70;92.30;;;;;;5076357;28;20043;-55
2021/11/03 12:14:37;;;;;;;19.45;12.65;;;12.70;92.40;;;;;;5074136;28;20039;-55
2021/11/03 12:17:03;;;;;;;18.52;11.88;;;12.70;92.60;;;;;;5080780;28;20039;-55
2021/11/03 12:19:38;;;;;;;19.27;12.35;;;12.70;92.40;;;;;;5078739;28;20104;-55
2021/11/03 12:22:17;;;;;;;18.85;12.45;;;12.70;92.20;;;;;;5062929;28;20390;-55
2021/11/03 12:24:48;;;;;;;18.75;12.80;;;12.70;92.30;;;;;;5058382;28;20246;-55
2021/11/03 12:27:23;;;;;;;14.68;11.02;;;12.70;92.60;;;;;;5061078;28;20059;-54
2021/11/03 12:29:56;;;;;;;18.58;12.52;;;12.70;92.40;;;;;;5058402;28;20100;-54
2021/11/03 12:32:44;;;;;;;18.83;12.68;;;12.70;92.40;;;;;;5059630;28;20042;-54
2021/11/03 12:35:18;;;;;;;18.05;12.05;;;12.70;92.50;;;;;;5064968;28;20020;-55
2021/11/03 12:37:57;;;;;;;17.83;11.57;;;12.70;92.60;;;;;;5068176;28;21122;-55